createdAt,value
2023-05-21T00:00:02.433Z,16.50
2023-05-21T00:02:41.081Z,16.83
2023-05-21T00:05:13.790Z,16.85
2023-05-21T00:07:45.888Z,18.33
2023-05-21T00:10:14.261Z,16.65
2023-05-21T00:12:42.680Z,18.92
2023-05-21T00:15:12.776Z,19.80
2023-05-21T00:17:41.245Z,16.95
2023-05-21T00:20:10.109Z,18.30
2023-05-21T00:22:38.445Z,19.63
2023-05-21T00:25:07.353Z,20.02
2023-05-21T00:27:35.511Z,18.23
2023-05-21T00:30:04.110Z,18.38
2023-05-21T00:32:34.920Z,17.50
2023-05-21T00:35:02.975Z,18.67
2023-05-21T00:37:34.491Z,19.38
2023-05-21T00:40:02.857Z,19.63
2023-05-21T00:42:30.984Z,18.00
2023-05-21T00:44:59.382Z,18.95
2023-05-21T00:47:29.783Z,18.40
2023-05-21T00:49:59.657Z,18.80
2023-05-21T00:52:27.865Z,18.55
2023-05-21T00:54:56.701Z,18.88
2023-05-21T00:57:27.989Z,17.77
2023-05-21T00:59:56.104Z,19.05
2023-05-21T01:02:26.366Z,18.77
2023-05-21T01:04:56.280Z,18.70
2023-05-21T01:07:25.950Z,19.98
2023-05-21T01:09:54.924Z,20.85
2023-05-21T01:12:24.648Z,20.27
2023-05-21T01:14:53.365Z,19.30
2023-05-21T01:17:24.342Z,19.40
2023-05-21T01:19:54.918Z,21.10
2023-05-21T01:22:25.112Z,20.65
2023-05-21T01:24:56.662Z,20.67
2023-05-21T01:27:24.853Z,20.52
2023-05-21T01:29:53.064Z,21.10
2023-05-21T01:32:27.927Z,20.23
2023-05-21T01:35:02.029Z,21.35
2023-05-21T01:37:36.237Z,19.77
2023-05-21T01:40:11.823Z,20.25
2023-05-21T01:42:44.066Z,18.83
2023-05-21T01:45:15.130Z,21.20
2023-05-21T01:47:46.339Z,20.83
2023-05-21T01:50:15.481Z,20.52
2023-05-21T01:52:50.878Z,20.95
2023-05-21T01:55:24.849Z,21.02
2023-05-21T01:57:53.991Z,19.83
2023-05-21T02:00:23.726Z,21.25
2023-05-21T02:02:52.760Z,20.05
2023-05-21T02:05:21.245Z,21.23
2023-05-21T02:07:49.852Z,22.38
2023-05-21T02:10:18.188Z,19.90
2023-05-21T02:12:47.787Z,20.38
2023-05-21T02:15:18.255Z,19.27
2023-05-21T02:17:46.891Z,20.35
2023-05-21T02:20:15.584Z,21.65
2023-05-21T02:22:45.522Z,20.58
2023-05-21T02:25:16.003Z,21.70
2023-05-21T02:27:46.614Z,20.30
2023-05-21T02:30:17.152Z,20.00
2023-05-21T02:32:45.539Z,20.73
2023-05-21T02:35:14.663Z,22.15
2023-05-21T02:37:44.233Z,20.83
2023-05-21T02:40:13.473Z,20.77
2023-05-21T02:42:42.689Z,17.83
2023-05-21T02:45:16.748Z,23.27
2023-05-21T02:47:45.605Z,20.60
2023-05-21T02:50:15.311Z,21.65
2023-05-21T02:52:53.493Z,22.13
2023-05-21T02:55:21.596Z,19.30
2023-05-21T02:57:49.846Z,23.33
2023-05-21T03:00:19.476Z,20.95
2023-05-21T03:02:47.696Z,20.60
2023-05-21T03:05:15.979Z,20.83
2023-05-21T03:07:44.223Z,21.38
2023-05-21T03:10:12.556Z,21.75
2023-05-21T03:12:40.719Z,21.85
2023-05-21T03:15:10.099Z,21.88
2023-05-21T03:17:39.930Z,19.85
2023-05-21T03:20:16.181Z,20.80
2023-05-21T03:22:45.076Z,22.40
2023-05-21T03:25:14.023Z,20.95
2023-05-21T03:27:42.335Z,21.63
2023-05-21T03:30:28.706Z,20.63
2023-05-21T03:33:18.651Z,19.88
2023-05-21T03:35:47.023Z,19.52
2023-05-21T03:38:15.712Z,21.92
2023-05-21T03:40:44.149Z,22.08
2023-05-21T03:43:12.502Z,21.10
2023-05-21T03:45:43.568Z,21.65
2023-05-21T03:48:32.555Z,19.77
2023-05-21T03:51:02.524Z,20.30
2023-05-21T03:53:30.674Z,23.08
2023-05-21T03:55:58.951Z,21.38
2023-05-21T03:58:28.122Z,20.60
2023-05-21T04:00:56.401Z,22.30
2023-05-21T04:03:25.013Z,21.60
2023-05-21T04:05:55.197Z,21.00
2023-05-21T04:08:24.279Z,21.92
2023-05-21T04:10:52.435Z,21.50
2023-05-21T04:13:20.732Z,19.77
2023-05-21T04:15:49.623Z,21.00
2023-05-21T04:18:17.944Z,21.90
2023-05-21T04:20:46.364Z,21.45
2023-05-21T04:23:15.873Z,21.63
2023-05-21T04:25:44.052Z,20.63
2023-05-21T04:28:12.482Z,20.65
2023-05-21T04:30:40.601Z,20.50
2023-05-21T04:33:10.134Z,19.65
2023-05-21T04:35:38.412Z,22.02
2023-05-21T04:38:06.660Z,20.25
2023-05-21T04:40:36.667Z,20.13
2023-05-21T04:43:05.216Z,19.85
2023-05-21T04:45:33.681Z,20.23
2023-05-21T04:48:03.078Z,20.98
2023-05-21T04:50:31.881Z,22.00
2023-05-21T04:53:00.144Z,21.13
2023-05-21T04:55:28.971Z,19.40
2023-05-21T04:57:58.786Z,20.52
2023-05-21T05:00:27.837Z,19.83
2023-05-21T05:02:56.335Z,19.55
2023-05-21T05:05:24.483Z,18.88
2023-05-21T05:07:52.999Z,19.13
2023-05-21T05:10:21.752Z,20.40
2023-05-21T05:12:50.248Z,19.20
2023-05-21T05:15:20.718Z,18.88
2023-05-21T05:17:50.572Z,20.17
2023-05-21T05:20:19.184Z,21.20
2023-05-21T05:22:47.411Z,20.13
2023-05-21T05:25:15.583Z,19.60
2023-05-21T05:27:44.122Z,22.02
2023-05-21T05:30:13.152Z,19.83
2023-05-21T05:32:42.843Z,20.50
2023-05-21T05:35:11.337Z,20.52
2023-05-21T05:37:39.913Z,19.05
2023-05-21T05:40:09.258Z,20.10
2023-05-21T05:42:37.436Z,17.73
2023-05-21T05:45:13.169Z,20.88
2023-05-21T05:47:43.294Z,19.63
2023-05-21T05:50:12.354Z,20.40
2023-05-21T05:52:40.713Z,19.88
2023-05-21T05:55:10.169Z,18.73
2023-05-21T05:57:38.728Z,19.92
2023-05-21T06:00:13.186Z,21.00
2023-05-21T06:02:45.923Z,18.85
2023-05-21T06:05:14.117Z,20.45
2023-05-21T06:07:42.532Z,21.90
2023-05-21T06:10:11.582Z,19.85
2023-05-21T06:12:39.810Z,19.92
2023-05-21T06:15:09.051Z,19.40
2023-05-21T06:17:37.847Z,19.27
2023-05-21T06:20:10.503Z,19.65
2023-05-21T06:22:39.086Z,17.27
2023-05-21T06:25:10.774Z,17.70
2023-05-21T06:27:39.699Z,19.27
2023-05-21T06:30:15.380Z,18.52
2023-05-21T06:32:44.674Z,19.73
2023-05-21T06:35:14.322Z,18.77
2023-05-21T06:37:43.068Z,20.00
2023-05-21T06:40:11.849Z,17.63
2023-05-21T06:42:41.236Z,18.52
2023-05-21T06:45:21.863Z,17.80
2023-05-21T06:47:53.132Z,16.67
2023-05-21T06:50:23.084Z,18.65
2023-05-21T06:52:51.817Z,17.90
2023-05-21T06:55:20.154Z,17.05
2023-05-21T06:58:06.532Z,16.23
2023-05-21T07:00:35.080Z,15.55
2023-05-21T07:03:03.894Z,15.55
2023-05-21T07:05:33.626Z,16.42
2023-05-21T07:08:02.060Z,16.10
2023-05-21T07:10:30.994Z,16.67
2023-05-21T07:12:59.236Z,15.38
2023-05-21T07:15:28.235Z,16.02
2023-05-21T07:17:56.739Z,14.73
2023-05-21T07:20:25.414Z,14.80
2023-05-21T07:22:57.891Z,15.95
2023-05-21T07:25:26.839Z,16.77
2023-05-21T07:27:55.117Z,14.93
2023-05-21T07:30:23.402Z,14.70
2023-05-21T07:32:52.013Z,16.05
2023-05-21T07:35:21.467Z,14.43
2023-05-21T07:37:50.306Z,15.10
2023-05-21T07:40:19.864Z,14.55
2023-05-21T07:42:48.337Z,15.15
2023-05-21T07:45:20.047Z,15.95
2023-05-21T07:47:48.246Z,16.40
2023-05-21T07:50:16.739Z,16.58
2023-05-21T07:52:45.162Z,17.08
2023-05-21T07:55:13.907Z,15.45
2023-05-21T07:57:45.407Z,15.40
2023-05-21T08:00:17.084Z,16.83
2023-05-21T08:02:50.504Z,16.20
2023-05-21T08:05:19.260Z,16.55
2023-05-21T08:07:47.716Z,16.77
2023-05-21T08:10:18.481Z,14.77
2023-05-21T08:12:50.038Z,15.50
2023-05-21T08:15:18.712Z,14.15
2023-05-21T08:17:47.265Z,16.55
2023-05-21T08:20:15.883Z,15.63
2023-05-21T08:22:46.471Z,15.20
2023-05-21T08:25:14.593Z,14.93
2023-05-21T08:27:43.105Z,16.33
2023-05-21T08:30:13.343Z,15.23
2023-05-21T08:32:41.712Z,14.90
2023-05-21T08:35:10.617Z,14.60
2023-05-21T08:37:57.811Z,16.10
2023-05-21T08:40:43.076Z,16.70
2023-05-21T08:43:16.492Z,14.63
2023-05-21T08:45:55.751Z,14.47
2023-05-21T08:48:27.426Z,13.60
2023-05-21T08:50:56.258Z,14.27
2023-05-21T08:53:34.054Z,13.50
2023-05-21T08:56:03.371Z,15.77
2023-05-21T08:58:47.324Z,13.17
2023-05-21T09:01:20.344Z,12.67
2023-05-21T09:03:59.087Z,13.80
2023-05-21T09:06:33.959Z,13.30
2023-05-21T09:09:09.894Z,13.47
2023-05-21T09:11:43.834Z,13.07
2023-05-21T09:14:12.868Z,14.50
2023-05-21T09:17:03.954Z,14.40
2023-05-21T09:19:33.166Z,14.87
2023-05-21T09:22:04.046Z,14.13
2023-05-21T09:24:36.313Z,13.43
2023-05-21T09:27:08.180Z,12.23
2023-05-21T09:29:37.096Z,13.17
2023-05-21T09:32:12.295Z,13.00
2023-05-21T09:34:42.562Z,13.30
2023-05-21T09:37:23.748Z,12.47
2023-05-21T09:39:55.674Z,13.20
2023-05-21T09:42:23.620Z,14.13
2023-05-21T09:44:51.904Z,13.80
2023-05-21T09:47:22.729Z,12.83
2023-05-21T09:49:51.005Z,13.50
2023-05-21T09:52:26.291Z,13.83
2023-05-21T09:54:54.939Z,12.20
2023-05-21T09:57:26.875Z,12.33
2023-05-21T09:59:55.946Z,12.30
2023-05-21T10:02:27.784Z,12.80
2023-05-21T10:04:57.956Z,13.80
2023-05-21T10:07:28.054Z,12.83
2023-05-21T10:09:58.157Z,13.83
2023-05-21T10:12:27.462Z,13.43
2023-05-21T10:15:01.387Z,14.43
2023-05-21T10:17:32.165Z,13.73
2023-05-21T10:20:01.688Z,13.87
2023-05-21T10:22:31.018Z,14.20
2023-05-21T10:25:01.110Z,13.40
2023-05-21T10:27:32.551Z,14.20
2023-05-21T10:30:01.981Z,13.17
2023-05-21T10:32:33.391Z,13.57
2023-05-21T10:35:03.160Z,13.47
2023-05-21T10:37:32.152Z,13.77
2023-05-21T10:40:00.440Z,13.17
2023-05-21T10:43:02.587Z,11.47
2023-05-21T10:45:52.694Z,12.70
2023-05-21T10:48:36.571Z,12.93
2023-05-21T10:51:19.949Z,11.57
2023-05-21T10:54:18.271Z,11.90
2023-05-21T10:56:54.279Z,11.53
2023-05-21T10:59:37.554Z,12.60
2023-05-21T11:02:07.572Z,12.30
2023-05-21T11:04:40.242Z,11.70
2023-05-21T11:07:08.678Z,11.80
2023-05-21T11:09:39.764Z,11.20
2023-05-21T11:12:10.041Z,10.90
2023-05-21T11:14:40.299Z,10.23
2023-05-21T11:17:14.802Z,10.50
2023-05-21T11:19:47.564Z,10.70
2023-05-21T11:22:23.872Z,10.80
2023-05-21T11:24:52.903Z,10.63
2023-05-21T11:27:34.958Z,10.07
2023-05-21T11:30:06.161Z,10.13
2023-05-21T11:32:37.854Z,10.43
2023-05-21T11:35:09.076Z,8.90
2023-05-21T11:37:40.715Z,10.07
2023-05-21T11:40:26.341Z,10.23
2023-05-21T11:42:55.842Z,9.87
2023-05-21T11:45:26.519Z,10.70
2023-05-21T11:47:56.319Z,10.37
2023-05-21T11:50:27.438Z,9.70
2023-05-21T11:52:56.112Z,10.23
2023-05-21T11:55:25.939Z,9.90
2023-05-21T11:57:56.010Z,10.73
2023-05-21T12:00:24.698Z,8.67
2023-05-21T12:02:55.772Z,9.63
2023-05-21T12:05:27.215Z,9.70
2023-05-21T12:07:56.777Z,9.17
2023-05-21T12:10:25.004Z,9.63
2023-05-21T12:12:56.808Z,10.03
2023-05-21T12:15:26.436Z,10.20
2023-05-21T12:17:56.171Z,9.50
2023-05-21T12:20:27.183Z,10.87
2023-05-21T12:22:55.279Z,10.20
2023-05-21T12:25:23.485Z,9.77
2023-05-21T12:27:52.815Z,9.40
2023-05-21T12:30:21.816Z,9.63
2023-05-21T12:32:50.322Z,8.77
2023-05-21T12:35:23.104Z,9.23
2023-05-21T12:37:53.531Z,9.87
2023-05-21T12:40:26.829Z,12.10
2023-05-21T12:43:04.500Z,10.67
2023-05-21T12:45:38.277Z,9.40
2023-05-21T12:48:15.042Z,10.73
2023-05-21T12:50:47.206Z,9.40
2023-05-21T12:53:19.722Z,9.13
2023-05-21T12:55:57.910Z,9.33
2023-05-21T12:58:41.853Z,8.53
2023-05-21T13:01:16.700Z,8.67
2023-05-21T13:03:52.510Z,8.30
2023-05-21T13:06:28.156Z,8.33
2023-05-21T13:09:05.774Z,7.37
2023-05-21T13:11:38.020Z,8.23
2023-05-21T13:14:11.667Z,7.40
2023-05-21T13:16:48.099Z,8.07
2023-05-21T13:19:23.170Z,8.10
2023-05-21T13:21:59.081Z,8.03
2023-05-21T13:24:39.361Z,8.10
2023-05-21T13:27:17.087Z,7.53
2023-05-21T13:29:55.539Z,7.97
2023-05-21T13:32:31.936Z,8.10
2023-05-21T13:35:08.147Z,7.70
2023-05-21T13:37:45.245Z,8.03
2023-05-21T13:40:22.383Z,7.50
2023-05-21T13:42:54.797Z,8.90
2023-05-21T13:45:29.843Z,8.40
2023-05-21T13:48:02.669Z,7.93
2023-05-21T13:50:38.690Z,7.50
2023-05-21T13:53:13.803Z,7.80
2023-05-21T13:55:55.905Z,7.90
2023-05-21T13:58:38.882Z,8.13
2023-05-21T14:01:15.962Z,8.43
2023-05-21T14:03:47.756Z,8.13
2023-05-21T14:06:15.910Z,8.40
2023-05-21T14:08:44.089Z,8.37
2023-05-21T14:11:13.505Z,6.90
2023-05-21T14:13:50.464Z,8.90
2023-05-21T14:16:31.428Z,9.37
2023-05-21T14:19:09.955Z,8.10
2023-05-21T14:21:47.318Z,8.50
2023-05-21T14:24:22.623Z,8.00
2023-05-21T14:26:59.041Z,7.53
2023-05-21T14:29:33.313Z,8.50
2023-05-21T14:32:08.799Z,8.93
2023-05-21T14:34:43.692Z,9.80
2023-05-21T14:37:22.781Z,9.57
2023-05-21T14:40:00.018Z,9.47
2023-05-21T14:42:34.685Z,9.17
2023-05-21T14:45:18.046Z,8.63
2023-05-21T14:47:55.408Z,9.07
2023-05-21T14:50:32.460Z,9.00
2023-05-21T14:53:06.912Z,8.93
2023-05-21T14:55:39.075Z,8.03
2023-05-21T14:58:14.189Z,8.10
2023-05-21T15:00:46.372Z,8.40
2023-05-21T15:03:16.614Z,8.77
2023-05-21T15:05:48.163Z,9.40
2023-05-21T15:08:20.444Z,9.50
2023-05-21T15:10:53.547Z,9.10
2023-05-21T15:13:29.832Z,8.30
2023-05-21T15:16:09.149Z,9.30
2023-05-21T15:18:43.121Z,8.43
2023-05-21T15:21:15.955Z,8.63
2023-05-21T15:23:51.057Z,9.20
2023-05-21T15:26:28.967Z,8.70
2023-05-21T15:29:07.660Z,8.40
2023-05-21T15:31:45.852Z,7.93
2023-05-21T15:34:22.812Z,9.80
2023-05-21T15:37:00.208Z,7.83
2023-05-21T15:39:34.023Z,9.50
2023-05-21T15:42:09.382Z,8.73
2023-05-21T15:44:50.125Z,8.37
2023-05-21T15:47:27.758Z,8.67
2023-05-21T15:50:05.804Z,8.50
2023-05-21T15:52:42.209Z,9.60
2023-05-21T15:55:17.595Z,8.77
2023-05-21T15:57:51.074Z,8.60
2023-05-21T16:00:26.758Z,10.27
2023-05-21T16:03:01.965Z,9.73
2023-05-21T16:05:31.184Z,9.60
2023-05-21T16:07:59.426Z,10.67
2023-05-21T16:10:27.622Z,11.23
2023-05-21T16:12:55.833Z,9.93
2023-05-21T16:15:25.500Z,11.00
2023-05-21T16:17:53.723Z,10.70
2023-05-21T16:20:22.758Z,11.00
2023-05-21T16:22:51.284Z,9.23
2023-05-21T16:25:19.591Z,9.87
2023-05-21T16:27:48.848Z,10.90
2023-05-21T16:30:17.095Z,9.97
2023-05-21T16:32:46.716Z,10.03
2023-05-21T16:35:15.034Z,9.33
2023-05-21T16:37:43.303Z,9.90
2023-05-21T16:40:12.199Z,9.03
2023-05-21T16:42:40.450Z,8.93
2023-05-21T16:45:10.842Z,9.03
2023-05-21T16:47:39.025Z,10.17
2023-05-21T16:50:10.566Z,9.03
2023-05-21T16:52:38.654Z,9.00
2023-05-21T16:55:07.545Z,9.17
2023-05-21T16:57:35.712Z,9.53
2023-05-21T17:00:04.966Z,9.60
2023-05-21T17:02:33.285Z,9.00
2023-05-21T17:05:01.406Z,9.10
2023-05-21T17:07:31.582Z,8.70
2023-05-21T17:09:59.758Z,9.30
2023-05-21T17:12:27.840Z,8.90
2023-05-21T17:14:55.937Z,9.40
2023-05-21T17:17:24.541Z,10.60
2023-05-21T17:19:52.653Z,9.80
2023-05-21T17:22:21.441Z,10.27
2023-05-21T17:24:51.120Z,10.23
2023-05-21T17:27:19.139Z,9.73
2023-05-21T17:29:47.393Z,9.67
2023-05-21T17:32:15.459Z,9.87
2023-05-21T17:34:44.232Z,10.60
2023-05-21T17:37:12.336Z,9.97
2023-05-21T17:39:40.793Z,9.77
2023-05-21T17:42:10.301Z,9.97
2023-05-21T17:44:38.632Z,10.00
2023-05-21T17:47:08.016Z,10.90
2023-05-21T17:49:36.209Z,10.77
2023-05-21T17:52:04.559Z,11.40
2023-05-21T17:54:32.604Z,11.27
2023-05-21T17:57:00.601Z,10.60
2023-05-21T17:59:30.152Z,10.27
2023-05-21T18:02:01.399Z,9.77
2023-05-21T18:04:29.843Z,9.90
2023-05-21T18:06:58.184Z,10.30
2023-05-21T18:09:26.155Z,9.93
2023-05-21T18:11:54.539Z,9.83
2023-05-21T18:14:22.594Z,10.80
2023-05-21T18:16:52.221Z,11.10
2023-05-21T18:19:20.401Z,10.00
2023-05-21T18:21:49.145Z,10.27
2023-05-21T18:24:17.286Z,10.03
2023-05-21T18:26:45.782Z,9.67
2023-05-21T18:29:15.053Z,10.20
2023-05-21T18:31:48.164Z,10.07
2023-05-21T18:34:18.982Z,11.13
2023-05-21T18:36:48.233Z,10.60
2023-05-21T18:39:16.516Z,10.60
2023-05-21T18:41:44.829Z,10.13
2023-05-21T18:44:13.103Z,10.43
2023-05-21T18:46:42.311Z,10.47
2023-05-21T18:49:10.670Z,11.10
2023-05-21T18:51:42.900Z,10.67
2023-05-21T18:54:11.126Z,9.40
2023-05-21T18:56:39.373Z,9.60
2023-05-21T18:59:07.843Z,9.80
2023-05-21T19:01:35.896Z,9.90
2023-05-21T19:04:04.303Z,9.70
2023-05-21T19:06:32.378Z,10.20
2023-05-21T19:09:02.144Z,10.53
2023-05-21T19:11:34.313Z,11.70
2023-05-21T19:14:02.488Z,10.90
2023-05-21T19:16:30.674Z,10.33
2023-05-21T19:18:58.940Z,10.63
2023-05-21T19:21:27.422Z,10.00
2023-05-21T19:23:55.616Z,11.27
2023-05-21T19:26:25.272Z,11.40
2023-05-21T19:28:54.784Z,10.53
2023-05-21T19:31:23.736Z,9.70
2023-05-21T19:33:52.220Z,10.83
2023-05-21T19:36:22.673Z,10.20
2023-05-21T19:38:51.651Z,10.30
2023-05-21T19:41:21.650Z,10.70
2023-05-21T19:43:51.750Z,11.00
2023-05-21T19:46:20.589Z,9.97
2023-05-21T19:48:49.706Z,11.48
2023-05-21T19:51:18.319Z,9.80
2023-05-21T19:53:46.621Z,10.53
2023-05-21T19:56:15.097Z,10.70
2023-05-21T19:58:46.999Z,11.03
2023-05-21T20:01:17.399Z,11.27
2023-05-21T20:03:46.217Z,9.70
2023-05-21T20:06:15.490Z,10.13
2023-05-21T20:08:43.782Z,10.57
2023-05-21T20:11:12.018Z,9.82
2023-05-21T20:13:40.249Z,9.87
2023-05-21T20:16:08.338Z,10.47
2023-05-21T20:18:37.966Z,10.10
2023-05-21T20:21:06.504Z,11.25
2023-05-21T20:23:34.661Z,10.20
2023-05-21T20:26:02.822Z,10.00
2023-05-21T20:28:30.966Z,10.93
2023-05-21T20:30:59.271Z,10.00
2023-05-21T20:33:28.922Z,10.47
2023-05-21T20:35:58.852Z,9.80
2023-05-21T20:38:27.651Z,10.53
2023-05-21T20:40:56.364Z,10.90
2023-05-21T20:43:25.636Z,12.57
2023-05-21T20:45:59.521Z,12.50
2023-05-21T20:48:29.047Z,11.02
2023-05-21T20:50:58.708Z,10.77
2023-05-21T20:53:26.811Z,11.70
2023-05-21T20:55:55.218Z,12.25
2023-05-21T20:58:25.755Z,12.45
2023-05-21T21:00:55.108Z,12.98
2023-05-21T21:03:23.291Z,13.82
2023-05-21T21:05:53.027Z,12.35
2023-05-21T21:08:22.531Z,11.55
2023-05-21T21:10:50.926Z,12.00
2023-05-21T21:13:19.352Z,13.75
2023-05-21T21:15:47.588Z,13.25
2023-05-21T21:18:16.280Z,13.80
2023-05-21T21:20:49.798Z,14.15
2023-05-21T21:23:18.030Z,13.73
2023-05-21T21:25:47.714Z,13.85
2023-05-21T21:28:15.877Z,12.93
2023-05-21T21:30:44.967Z,13.77
2023-05-21T21:33:14.609Z,13.20
2023-05-21T21:35:43.035Z,12.48
2023-05-21T21:38:11.395Z,12.27
2023-05-21T21:40:39.616Z,12.90
2023-05-21T21:43:09.458Z,12.60
2023-05-21T21:45:37.520Z,13.23
2023-05-21T21:48:06.229Z,12.90
2023-05-21T21:50:34.428Z,12.40
2023-05-21T21:53:03.586Z,12.85
2023-05-21T21:55:32.852Z,14.68
2023-05-21T21:58:00.880Z,13.77
2023-05-21T22:00:30.572Z,13.60
2023-05-21T22:02:58.666Z,12.85
2023-05-21T22:05:30.669Z,12.75
2023-05-21T22:07:58.721Z,13.20
2023-05-21T22:10:26.989Z,12.82
2023-05-21T22:12:55.153Z,13.50
2023-05-21T22:15:27.344Z,12.25
2023-05-21T22:17:57.068Z,12.80
2023-05-21T22:20:26.026Z,14.38
2023-05-21T22:22:55.420Z,12.75
2023-05-21T22:25:23.928Z,12.85
2023-05-21T22:27:52.316Z,12.55
2023-05-21T22:30:20.741Z,12.57
2023-05-21T22:32:49.459Z,12.90
2023-05-21T22:35:20.037Z,12.68
2023-05-21T22:37:48.137Z,12.75
2023-05-21T22:40:16.464Z,12.95
2023-05-21T22:42:46.991Z,12.52
2023-05-21T22:45:15.360Z,13.85
2023-05-21T22:47:43.629Z,13.82
2023-05-21T22:50:12.845Z,12.70
2023-05-21T22:52:43.172Z,13.35
2023-05-21T22:55:11.782Z,13.02
2023-05-21T22:57:40.106Z,12.00
2023-05-21T23:00:10.863Z,13.57
2023-05-21T23:02:39.039Z,13.38
2023-05-21T23:05:07.675Z,13.45
2023-05-21T23:07:35.859Z,13.13
2023-05-21T23:10:05.892Z,14.55
2023-05-21T23:12:38.849Z,12.35
2023-05-21T23:15:07.617Z,11.90
2023-05-21T23:17:36.069Z,13.70
2023-05-21T23:20:04.211Z,14.27
2023-05-21T23:22:32.490Z,13.38
2023-05-21T23:25:02.220Z,13.05
2023-05-21T23:27:33.183Z,12.70
2023-05-21T23:30:01.605Z,12.32
2023-05-21T23:32:30.541Z,12.13
2023-05-21T23:34:58.560Z,13.25
2023-05-21T23:37:30.106Z,12.98
2023-05-21T23:40:00.156Z,13.35
2023-05-21T23:42:31.309Z,13.57
2023-05-21T23:45:00.796Z,13.90
2023-05-21T23:47:28.840Z,12.95
2023-05-21T23:49:57.094Z,12.60
2023-05-21T23:52:25.187Z,12.65
2023-05-21T23:54:53.417Z,13.20
2023-05-21T23:57:21.427Z,14.65
2023-05-21T23:59:49.418Z,13.82
